Time;durP1;ratioP1;P1;durP2;ratioP2;P2;SDS_P1;SDS_P2;PMS_P1;PMS_P2;Temp;Humidity;BMP_temperature;BMP_pressure;BME280_temperature;BME280_humidity;BME280_pressure;Samples;Min_cycle;Max_cycle;Signal;HPM_P1;HPM_P2
2023/03/22 00:00:27;;;;;;;19.17;14.63;;;10.10;99.90;;;;;;5108794;28;20431;-75
2023/03/22 00:02:55;;;;;;;20.20;14.67;;;10.10;99.90;;;;;;5089273;28;20416;-76
2023/03/22 00:05:21;;;;;;;22.65;14.77;;;10.10;99.90;;;;;;5109206;28;20449;-75
2023/03/22 00:07:52;;;;;;;18.40;13.80;;;10.10;99.90;;;;;;5107928;28;20388;-76
2023/03/22 00:10:18;;;;;;;20.73;13.82;;;10.20;99.90;;;;;;5107131;28;20487;-75
2023/03/22 00:12:44;;;;;;;16.75;12.63;;;10.20;99.90;;;;;;5109775;28;20472;-76
2023/03/22 00:15:10;;;;;;;18.33;13.35;;;10.20;99.90;;;;;;5111056;28;20394;-76
2023/03/22 00:17:37;;;;;;;18.53;11.97;;;10.20;99.90;;;;;;5110915;28;20925;-75
2023/03/22 00:20:05;;;;;;;15.60;9.98;;;10.20;99.90;;;;;;5110983;28;20432;-75
2023/03/22 00:22:31;;;;;;;18.50;10.93;;;10.20;99.90;;;;;;5111334;27;20400;-75
2023/03/22 00:24:57;;;;;;;16.90;10.60;;;10.20;99.90;;;;;;5111318;28;20515;-75
2023/03/22 00:27:23;;;;;;;16.67;10.45;;;10.20;99.90;;;;;;5111526;27;20423;-75
2023/03/22 00:29:51;;;;;;;17.45;10.18;;;10.20;99.90;;;;;;5111100;28;20948;-76
2023/03/22 00:32:17;;;;;;;15.55;9.88;;;10.20;99.90;;;;;;5111772;27;20512;-76
2023/03/22 00:34:42;;;;;;;16.47;10.50;;;10.20;99.90;;;;;;5096975;28;20824;-75
2023/03/22 00:37:08;;;;;;;16.65;10.30;;;10.20;99.90;;;;;;5121434;27;20452;-75
2023/03/22 00:39:34;;;;;;;17.47;10.27;;;10.20;99.90;;;;;;5082424;28;20451;-75
2023/03/22 00:42:00;;;;;;;19.55;10.85;;;10.10;99.90;;;;;;5092548;28;20774;-75
2023/03/22 00:44:25;;;;;;;17.70;9.88;;;10.20;99.90;;;;;;5110482;28;20738;-76
2023/03/22 00:46:51;;;;;;;15.63;9.27;;;10.20;99.90;;;;;;5110431;27;20781;-75
2023/03/22 00:49:17;;;;;;;14.35;8.80;;;10.20;99.90;;;;;;5081247;28;20404;-76
2023/03/22 00:51:43;;;;;;;19.02;9.52;;;10.10;99.90;;;;;;5111488;28;20424;-76
2023/03/22 00:54:09;;;;;;;16.50;9.02;;;10.10;99.90;;;;;;5093246;27;20442;-76
2023/03/22 00:56:36;;;;;;;15.95;9.00;;;10.10;99.90;;;;;;5092662;28;20450;-75
2023/03/22 00:59:02;;;;;;;15.35;8.77;;;10.20;99.90;;;;;;5110598;28;20431;-75
2023/03/22 01:01:28;;;;;;;17.13;8.23;;;10.10;99.90;;;;;;5110515;28;20496;-76
2023/03/22 01:03:54;;;;;;;15.53;7.90;;;10.10;99.90;;;;;;5110708;28;20487;-76
2023/03/22 01:06:19;;;;;;;16.52;7.55;;;10.10;99.90;;;;;;5110360;27;20484;-76
2023/03/22 01:08:45;;;;;;;13.87;7.53;;;10.00;99.90;;;;;;5110297;28;20405;-76
2023/03/22 01:11:11;;;;;;;13.40;7.03;;;10.00;99.90;;;;;;5092204;28;20410;-76
2023/03/22 01:13:37;;;;;;;13.27;7.00;;;10.00;99.90;;;;;;5110062;28;20450;-76
2023/03/22 01:16:04;;;;;;;13.05;6.45;;;10.00;99.90;;;;;;5120774;27;20398;-76
2023/03/22 01:18:30;;;;;;;13.27;6.00;;;10.00;99.90;;;;;;5116616;27;20423;-76
2023/03/22 01:20:55;;;;;;;14.23;6.70;;;10.00;99.90;;;;;;5130909;27;20401;-76
2023/03/22 01:23:21;;;;;;;12.90;6.25;;;10.00;99.90;;;;;;5129542;27;20436;-76
2023/03/22 01:25:46;;;;;;;11.50;6.00;;;10.00;99.90;;;;;;5129485;27;20501;-75
2023/03/22 01:28:12;;;;;;;12.00;5.60;;;10.00;99.90;;;;;;5078207;28;20402;-76
2023/03/22 01:30:39;;;;;;;11.40;5.80;;;9.90;99.90;;;;;;5110919;27;20387;-76
2023/03/22 01:33:06;;;;;;;11.60;5.07;;;9.90;99.90;;;;;;5112663;27;20412;-76
2023/03/22 01:35:32;;;;;;;9.88;4.95;;;9.90;99.90;;;;;;5110234;28;20396;-76
2023/03/22 01:37:58;;;;;;;10.32;4.90;;;9.90;99.90;;;;;;5109737;28;20408;-76
2023/03/22 01:40:25;;;;;;;15.15;5.55;;;9.90;99.90;;;;;;5110410;28;20518;-76
2023/03/22 01:42:52;;;;;;;10.25;4.80;;;9.90;99.90;;;;;;5110907;27;20454;-76
2023/03/22 01:45:34;;;;;;;10.77;4.80;;;9.90;99.90;;;;;;5075055;28;20510;-76
2023/03/22 01:48:25;;;;;;;10.63;4.70;;;9.90;99.90;;;;;;5091447;28;20413;-76
2023/03/22 01:51:11;;;;;;;10.27;4.63;;;9.90;99.90;;;;;;5078307;28;20408;-77
2023/03/22 01:53:44;;;;;;;10.77;4.20;;;9.90;99.90;;;;;;5091625;28;20412;-77
2023/03/22 01:56:11;;;;;;;10.10;4.30;;;9.90;99.90;;;;;;5090670;28;20404;-77
2023/03/22 01:58:37;;;;;;;9.73;3.65;;;9.90;99.90;;;;;;5109721;27;20420;-76
2023/03/22 02:01:05;;;;;;;8.88;4.00;;;9.80;99.90;;;;;;5109268;27;20404;-77
2023/03/22 02:04:11;;;;;;;9.73;3.80;;;9.80;99.90;;;;;;5109101;27;20401;-77
2023/03/22 02:06:38;;;;;;;8.68;3.63;;;9.80;99.90;;;;;;5091037;28;20432;-77
2023/03/22 02:09:07;;;;;;;9.00;3.42;;;9.80;99.90;;;;;;5109177;27;20396;-77
2023/03/22 02:11:37;;;;;;;10.20;3.47;;;9.80;99.90;;;;;;5095861;27;20497;-76
2023/03/22 02:14:27;;;;;;;11.07;3.08;;;9.80;99.90;;;;;;5090023;28;20442;-77
2023/03/22 02:17:11;;;;;;;6.45;2.63;;;9.80;99.90;;;;;;5083895;28;20412;-75
2023/03/22 02:19:41;;;;;;;9.65;2.92;;;9.80;99.90;;;;;;5072602;28;20432;-75
2023/03/22 02:22:26;;;;;;;10.30;3.38;;;9.80;99.90;;;;;;5090441;28;20451;-75
2023/03/22 02:25:06;;;;;;;7.57;2.30;;;9.80;99.90;;;;;;5083674;28;21114;-76
2023/03/22 02:27:51;;;;;;;8.50;2.63;;;9.80;99.90;;;;;;5088579;28;20412;-75
2023/03/22 02:31:14;;;;;;;9.30;2.70;;;9.80;99.90;;;;;;5073143;28;20412;-75
2023/03/22 02:33:49;;;;;;;8.07;2.45;;;9.80;99.90;;;;;;5010521;28;20423;-75
2023/03/22 02:36:58;;;;;;;10.80;2.22;;;9.80;99.90;;;;;;5025832;28;20403;-75
2023/03/22 02:39:35;;;;;;;10.03;2.67;;;9.80;99.90;;;;;;5072353;28;20965;-75
2023/03/22 02:42:22;;;;;;;7.40;2.10;;;9.80;99.90;;;;;;5073862;28;20798;-75
2023/03/22 02:45:14;;;;;;;7.25;1.98;;;9.70;99.90;;;;;;5110456;27;20432;-75
2023/03/22 02:47:49;;;;;;;7.32;2.03;;;9.80;99.90;;;;;;5104952;28;20401;-75
2023/03/22 02:50:26;;;;;;;9.37;2.23;;;9.80;99.90;;;;;;5099500;28;20405;-75
2023/03/22 02:52:58;;;;;;;8.63;2.05;;;9.70;99.90;;;;;;5089769;28;21448;-76
2023/03/22 02:55:33;;;;;;;7.43;2.05;;;9.70;99.90;;;;;;5089982;27;20412;-76
2023/03/22 02:58:05;;;;;;;8.23;1.98;;;9.70;99.90;;;;;;5086824;28;20408;-76
2023/03/22 03:00:32;;;;;;;8.02;1.90;;;9.70;99.90;;;;;;5109538;27;20419;-76
2023/03/22 03:03:10;;;;;;;10.85;2.38;;;9.70;99.90;;;;;;5089055;28;20416;-76
2023/03/22 03:05:49;;;;;;;8.85;1.88;;;9.70;99.90;;;;;;5092760;28;20780;-76
2023/03/22 03:08:16;;;;;;;10.90;2.30;;;9.70;99.90;;;;;;5091010;28;20400;-76
2023/03/22 03:10:43;;;;;;;7.93;1.83;;;9.70;99.90;;;;;;5090029;28;20408;-76
2023/03/22 03:13:12;;;;;;;8.27;1.90;;;9.70;99.90;;;;;;5108748;27;20766;-76
2023/03/22 03:15:42;;;;;;;9.02;2.05;;;9.70;99.90;;;;;;5090961;28;20815;-75
2023/03/22 03:18:20;;;;;;;8.30;2.05;;;9.70;99.90;;;;;;5091646;28;20406;-75
2023/03/22 03:21:03;;;;;;;8.35;1.80;;;9.70;99.90;;;;;;5086525;28;20906;-76
2023/03/22 03:23:51;;;;;;;10.15;1.90;;;9.70;99.90;;;;;;5092014;28;20902;-76
2023/03/22 03:26:36;;;;;;;8.05;1.95;;;9.70;99.90;;;;;;5089830;28;20433;-76
2023/03/22 03:29:15;;;;;;;9.00;2.05;;;9.70;99.90;;;;;;5086094;28;20441;-76
2023/03/22 03:31:50;;;;;;;8.77;1.85;;;9.70;99.90;;;;;;5104570;28;20549;-76
2023/03/22 03:34:25;;;;;;;11.57;1.73;;;9.70;99.90;;;;;;5088987;28;20937;-76
2023/03/22 03:36:59;;;;;;;9.70;1.77;;;9.70;99.90;;;;;;5083522;28;20409;-76
2023/03/22 03:39:29;;;;;;;8.23;2.03;;;9.70;99.90;;;;;;5089492;28;20515;-76
2023/03/22 03:41:56;;;;;;;8.20;1.80;;;9.70;99.90;;;;;;5085362;28;20889;-76
2023/03/22 03:44:22;;;;;;;6.00;1.40;;;9.70;99.90;;;;;;5081379;28;20414;-76
2023/03/22 03:46:51;;;;;;;8.57;1.60;;;9.70;99.90;;;;;;5108840;28;20731;-76
2023/03/22 03:49:18;;;;;;;8.90;1.80;;;9.70;99.90;;;;;;5095754;27;20402;-76
2023/03/22 03:51:50;;;;;;;6.95;1.60;;;9.70;99.90;;;;;;5092866;28;20476;-76
2023/03/22 03:54:15;;;;;;;8.33;1.70;;;9.70;99.90;;;;;;5083981;28;20404;-77
2023/03/22 03:56:41;;;;;;;8.48;1.55;;;9.70;99.90;;;;;;5092322;28;20407;-77
2023/03/22 03:59:08;;;;;;;7.13;1.77;;;9.70;99.90;;;;;;5091874;28;20436;-77
2023/03/22 04:01:34;;;;;;;8.43;2.00;;;9.70;99.90;;;;;;5112394;27;20951;-77
2023/03/22 04:04:00;;;;;;;12.13;1.83;;;9.70;99.90;;;;;;5093531;28;20436;-77
2023/03/22 04:06:26;;;;;;;9.32;2.08;;;9.70;99.90;;;;;;5111130;28;20822;-77
2023/03/22 04:08:52;;;;;;;10.32;2.33;;;9.70;99.90;;;;;;5093006;28;20487;-77
2023/03/22 04:11:21;;;;;;;10.95;2.17;;;9.70;99.90;;;;;;5093702;28;20468;-77
2023/03/22 04:13:46;;;;;;;10.02;2.10;;;9.70;99.90;;;;;;5086252;28;20404;-77
2023/03/22 04:16:12;;;;;;;11.03;2.20;;;9.70;99.90;;;;;;5093615;28;20411;-77
2023/03/22 04:18:38;;;;;;;7.82;2.05;;;9.70;99.90;;;;;;5107012;27;20421;-77
2023/03/22 04:21:04;;;;;;;8.73;2.07;;;9.60;99.90;;;;;;5093106;28;20438;-77
2023/03/22 04:23:31;;;;;;;11.18;2.30;;;9.70;99.90;;;;;;5096406;27;20764;-77
2023/03/22 04:25:58;;;;;;;8.32;2.28;;;9.60;99.90;;;;;;5115131;27;20487;-77
2023/03/22 04:28:25;;;;;;;7.38;2.08;;;9.60;99.90;;;;;;5114336;27;20398;-77
2023/03/22 04:30:51;;;;;;;9.35;2.53;;;9.60;99.90;;;;;;5110985;28;21075;-77
2023/03/22 04:33:17;;;;;;;8.95;2.72;;;9.60;99.90;;;;;;5092793;28;20402;-77
2023/03/22 04:35:45;;;;;;;9.68;2.30;;;9.60;99.90;;;;;;5115444;27;20435;-77
2023/03/22 04:38:11;;;;;;;8.43;2.30;;;9.60;99.90;;;;;;5114446;27;20419;-77
2023/03/22 04:40:37;;;;;;;9.73;2.73;;;9.60;99.90;;;;;;5092527;28;20471;-77
2023/03/22 04:43:04;;;;;;;10.60;2.67;;;9.60;99.90;;;;;;5110498;28;20408;-77
2023/03/22 04:45:31;;;;;;;10.68;2.80;;;9.60;99.90;;;;;;5111342;28;20450;-77
2023/03/22 04:47:57;;;;;;;11.68;2.80;;;9.60;99.90;;;;;;5092740;28;20408;-77
2023/03/22 04:50:23;;;;;;;11.82;2.42;;;9.60;99.90;;;;;;5104442;28;20397;-77
2023/03/22 04:52:49;;;;;;;8.15;2.63;;;9.60;99.90;;;;;;5108673;27;20404;-77
2023/03/22 04:55:15;;;;;;;8.90;2.63;;;9.60;99.90;;;;;;5111166;28;20475;-77
2023/03/22 04:57:41;;;;;;;9.73;2.42;;;9.60;99.90;;;;;;5092104;28;20484;-77
2023/03/22 05:00:07;;;;;;;9.80;2.50;;;9.60;99.90;;;;;;5109626;27;20511;-77
2023/03/22 05:02:33;;;;;;;10.93;2.85;;;9.60;99.90;;;;;;5092288;28;20405;-77
2023/03/22 05:04:59;;;;;;;10.25;3.05;;;9.60;99.90;;;;;;5093287;28;20407;-77
2023/03/22 05:07:26;;;;;;;11.55;3.30;;;9.60;99.90;;;;;;5111306;27;20404;-77
2023/03/22 05:09:51;;;;;;;9.40;3.20;;;9.60;99.90;;;;;;5086877;28;20893;-77
2023/03/22 05:12:17;;;;;;;10.15;3.50;;;9.60;99.90;;;;;;5085135;28;20403;-77
2023/03/22 05:14:43;;;;;;;8.63;3.07;;;9.60;99.90;;;;;;5105280;27;20394;-77
2023/03/22 05:17:09;;;;;;;12.35;3.28;;;9.60;99.90;;;;;;5109901;27;20400;-77
2023/03/22 05:19:35;;;;;;;10.32;4.00;;;9.60;99.90;;;;;;5110889;27;20436;-77
2023/03/22 05:22:01;;;;;;;10.10;4.30;;;9.60;99.90;;;;;;5110507;27;20494;-77
2023/03/22 05:24:28;;;;;;;9.35;4.15;;;9.60;99.90;;;;;;5110520;27;20449;-77
2023/03/22 05:26:54;;;;;;;12.40;4.85;;;9.60;99.90;;;;;;5091306;28;21016;-77
2023/03/22 05:29:23;;;;;;;10.20;4.50;;;9.60;99.90;;;;;;5110293;28;20557;-78
2023/03/22 05:31:48;;;;;;;10.40;5.03;;;9.60;99.90;;;;;;5116062;27;20391;-77
2023/03/22 05:34:14;;;;;;;12.95;5.68;;;9.60;99.90;;;;;;5092034;28;20469;-77
2023/03/22 05:36:39;;;;;;;12.17;5.47;;;9.60;99.90;;;;;;5113169;27;20394;-77
2023/03/22 05:39:06;;;;;;;12.85;5.30;;;9.60;99.90;;;;;;5088193;28;20432;-77
2023/03/22 05:41:32;;;;;;;13.48;5.57;;;9.70;99.90;;;;;;5067305;28;20405;-77
2023/03/22 05:43:58;;;;;;;11.55;5.35;;;9.70;99.90;;;;;;5091828;28;20412;-76
2023/03/22 05:46:24;;;;;;;13.73;6.38;;;9.70;99.90;;;;;;5109398;28;20781;-76
2023/03/22 05:48:50;;;;;;;11.52;5.93;;;9.70;99.90;;;;;;5109708;28;20450;-76
2023/03/22 05:51:16;;;;;;;12.05;6.53;;;9.70;99.90;;;;;;5108640;28;20404;-76
2023/03/22 05:53:46;;;;;;;13.57;6.53;;;9.70;99.90;;;;;;5109817;28;20396;-75
2023/03/22 05:56:12;;;;;;;16.58;7.53;;;9.70;99.90;;;;;;5113267;27;20967;-76
2023/03/22 05:58:40;;;;;;;12.35;6.60;;;9.80;99.90;;;;;;5109045;28;20478;-76
2023/03/22 06:01:10;;;;;;;14.93;8.10;;;9.80;99.90;;;;;;5109157;28;20496;-76
2023/03/22 06:03:37;;;;;;;13.98;7.85;;;9.80;99.90;;;;;;5091945;27;20499;-75
2023/03/22 06:06:05;;;;;;;13.50;7.45;;;9.80;99.90;;;;;;5117522;27;20469;-75
2023/03/22 06:08:32;;;;;;;15.75;8.23;;;9.80;99.90;;;;;;5090674;28;20450;-77
2023/03/22 06:10:58;;;;;;;16.33;8.85;;;9.80;99.90;;;;;;5074413;28;20433;-77
2023/03/22 06:13:24;;;;;;;16.30;9.10;;;9.90;99.90;;;;;;5105162;27;20412;-75
2023/03/22 06:15:50;;;;;;;13.90;8.77;;;9.90;99.90;;;;;;5112401;27;20404;-77
2023/03/22 06:18:16;;;;;;;18.20;9.15;;;9.90;99.90;;;;;;5112452;27;20404;-75
2023/03/22 06:20:42;;;;;;;14.93;9.63;;;9.90;99.90;;;;;;5109397;28;20420;-75
2023/03/22 06:23:08;;;;;;;14.20;9.40;;;10.00;99.90;;;;;;5109055;28;20393;-75
2023/03/22 06:25:33;;;;;;;14.45;9.38;;;10.00;99.90;;;;;;5105951;28;20449;-76
2023/03/22 06:27:59;;;;;;;18.47;10.17;;;10.10;99.90;;;;;;5108030;28;20904;-76
2023/03/22 06:30:25;;;;;;;16.50;9.85;;;10.10;99.90;;;;;;5087830;28;20947;-76
2023/03/22 06:32:51;;;;;;;16.50;8.95;;;10.10;99.90;;;;;;5086166;28;20476;-76
2023/03/22 06:35:16;;;;;;;17.03;9.43;;;10.20;99.90;;;;;;5112440;27;20401;-76
2023/03/22 06:37:42;;;;;;;17.73;9.68;;;10.20;99.90;;;;;;5108411;28;20861;-76
2023/03/22 06:40:09;;;;;;;14.45;8.82;;;10.30;99.90;;;;;;5112044;27;20463;-76
2023/03/22 06:42:35;;;;;;;15.57;8.53;;;10.30;99.90;;;;;;5090999;28;20843;-76
2023/03/22 06:45:01;;;;;;;16.98;9.00;;;10.40;99.90;;;;;;5115149;27;20397;-76
2023/03/22 06:47:27;;;;;;;16.13;9.07;;;10.40;99.90;;;;;;5108318;28;20403;-76
2023/03/22 06:49:53;;;;;;;13.85;9.02;;;10.50;99.90;;;;;;5094598;28;21187;-75
2023/03/22 06:52:19;;;;;;;15.10;9.70;;;10.50;99.90;;;;;;5108192;28;20404;-74
2023/03/22 06:54:44;;;;;;;16.98;8.90;;;10.50;99.90;;;;;;5094575;28;20409;-75
2023/03/22 06:57:10;;;;;;;16.53;9.13;;;10.50;99.90;;;;;;5088590;28;21764;-75
2023/03/22 06:59:36;;;;;;;17.45;9.60;;;10.60;99.90;;;;;;5088672;28;21013;-74
2023/03/22 07:02:02;;;;;;;13.13;8.80;;;10.60;99.90;;;;;;5108525;28;20920;-76
2023/03/22 07:04:27;;;;;;;15.55;9.40;;;10.60;99.90;;;;;;5112151;27;20396;-76
2023/03/22 07:06:54;;;;;;;16.60;10.00;;;10.60;99.90;;;;;;5084797;27;20452;-76
2023/03/22 07:09:19;;;;;;;16.15;9.00;;;10.70;99.90;;;;;;5112116;27;20447;-76
2023/03/22 07:11:45;;;;;;;16.33;9.43;;;10.70;99.90;;;;;;5107918;28;20482;-76
2023/03/22 07:14:11;;;;;;;15.98;9.20;;;10.70;99.90;;;;;;5103697;28;20398;-76
2023/03/22 07:16:36;;;;;;;17.10;9.48;;;10.70;99.90;;;;;;5068477;28;20411;-76
2023/03/22 07:19:02;;;;;;;16.87;9.37;;;10.70;99.90;;;;;;5105563;28;20424;-76
2023/03/22 07:21:28;;;;;;;15.32;9.65;;;10.80;99.90;;;;;;5083905;28;20408;-76
2023/03/22 07:23:54;;;;;;;17.70;9.77;;;10.80;99.90;;;;;;5107272;28;20407;-76
2023/03/22 07:26:20;;;;;;;16.65;9.70;;;10.90;99.90;;;;;;5107727;28;20493;-76
2023/03/22 07:28:46;;;;;;;15.95;10.13;;;10.90;99.90;;;;;;5108233;28;20894;-76
2023/03/22 07:31:12;;;;;;;14.88;9.90;;;10.90;99.90;;;;;;5107914;28;20491;-76
2023/03/22 07:33:39;;;;;;;17.65;9.52;;;10.90;99.90;;;;;;5107908;28;20458;-76
2023/03/22 07:36:06;;;;;;;14.90;8.70;;;10.90;99.90;;;;;;5107641;28;20453;-76
2023/03/22 07:38:32;;;;;;;17.02;8.88;;;10.90;99.90;;;;;;5108609;28;20403;-76
2023/03/22 07:40:58;;;;;;;15.27;8.95;;;10.90;99.90;;;;;;5109106;28;20396;-76
2023/03/22 07:43:23;;;;;;;13.67;9.43;;;10.90;99.90;;;;;;5108409;28;20946;-76
2023/03/22 07:45:50;;;;;;;13.75;8.98;;;10.90;99.90;;;;;;5109358;28;20475;-76
2023/03/22 07:48:17;;;;;;;14.38;7.95;;;10.90;99.90;;;;;;5108860;28;20430;-76
2023/03/22 07:50:42;;;;;;;13.50;7.70;;;10.90;99.90;;;;;;5108746;28;20420;-76
2023/03/22 07:53:08;;;;;;;14.43;8.67;;;10.90;99.90;;;;;;5107696;28;20795;-76
2023/03/22 07:55:35;;;;;;;13.23;7.90;;;10.90;99.90;;;;;;5110040;28;20400;-76
2023/03/22 07:58:02;;;;;;;15.43;8.63;;;10.90;99.90;;;;;;5108414;28;20412;-77
2023/03/22 08:00:28;;;;;;;13.02;7.80;;;10.90;99.90;;;;;;5109330;28;20511;-76
2023/03/22 08:02:54;;;;;;;13.63;8.23;;;10.90;99.90;;;;;;5108489;28;20400;-76
2023/03/22 08:05:21;;;;;;;13.57;7.88;;;11.00;99.90;;;;;;5108570;28;20399;-76
2023/03/22 08:07:47;;;;;;;14.40;7.63;;;11.00;99.90;;;;;;5103243;28;20408;-76
2023/03/22 08:10:13;;;;;;;14.03;7.57;;;11.00;99.90;;;;;;5108931;28;20404;-76
2023/03/22 08:12:39;;;;;;;14.30;8.18;;;11.00;99.90;;;;;;5108463;28;20993;-76
2023/03/22 08:15:06;;;;;;;12.70;7.72;;;11.00;99.90;;;;;;5108467;28;20445;-76
2023/03/22 08:17:31;;;;;;;12.20;7.35;;;11.00;99.90;;;;;;5107822;28;20851;-76
2023/03/22 08:19:57;;;;;;;12.43;7.57;;;11.00;99.90;;;;;;5088620;28;20601;-76
2023/03/22 08:22:24;;;;;;;12.40;7.20;;;11.00;99.90;;;;;;5107529;28;20765;-76
2023/03/22 08:24:53;;;;;;;14.23;6.90;;;11.00;99.90;;;;;;5109739;28;20472;-76
2023/03/22 08:27:19;;;;;;;13.30;6.70;;;11.20;99.90;;;;;;5109446;28;20428;-76
2023/03/22 08:29:46;;;;;;;9.95;6.45;;;11.30;99.90;;;;;;5093048;28;20404;-76
2023/03/22 08:32:12;;;;;;;13.40;6.60;;;11.40;99.90;;;;;;5089696;28;20406;-76
2023/03/22 08:34:41;;;;;;;9.10;5.97;;;11.50;99.90;;;;;;5090960;28;20430;-77
2023/03/22 08:37:09;;;;;;;11.13;5.67;;;11.50;99.90;;;;;;5093303;28;20473;-76
2023/03/22 08:39:35;;;;;;;14.55;6.45;;;11.50;99.90;;;;;;5099284;27;20428;-76
2023/03/22 08:42:01;;;;;;;11.60;6.38;;;11.40;99.90;;;;;;5094509;28;20929;-76
2023/03/22 08:44:27;;;;;;;13.40;5.97;;;11.40;99.90;;;;;;5092994;28;20412;-76
2023/03/22 08:46:53;;;;;;;10.75;5.70;;;11.40;99.90;;;;;;5086015;28;20412;-76
2023/03/22 08:49:19;;;;;;;13.18;6.22;;;11.30;99.90;;;;;;5095214;27;20404;-76
2023/03/22 08:51:44;;;;;;;12.43;5.47;;;11.40;99.90;;;;;;5114588;27;20753;-77
2023/03/22 08:54:10;;;;;;;9.45;4.95;;;11.40;99.90;;;;;;5091980;28;21236;-76
2023/03/22 08:56:36;;;;;;;9.60;5.03;;;11.40;99.90;;;;;;5110525;28;20396;-76
2023/03/22 08:59:07;;;;;;;13.40;5.65;;;11.40;99.90;;;;;;5118942;27;20489;-76
2023/03/22 09:01:34;;;;;;;11.85;5.00;;;11.50;99.90;;;;;;5095152;28;20440;-76
2023/03/22 09:04:01;;;;;;;10.80;4.82;;;11.60;99.90;;;;;;5101858;27;20477;-76
2023/03/22 09:06:27;;;;;;;12.75;4.35;;;11.60;99.90;;;;;;5119793;27;20933;-75
2023/03/22 09:08:53;;;;;;;10.47;4.80;;;11.70;99.90;;;;;;5092100;28;20457;-76
2023/03/22 09:11:19;;;;;;;10.57;4.50;;;11.70;99.90;;;;;;5117753;27;20408;-75
2023/03/22 09:13:50;;;;;;;12.90;4.50;;;11.60;99.90;;;;;;5117561;27;20403;-76
2023/03/22 09:16:16;;;;;;;12.77;4.57;;;11.70;99.90;;;;;;5086288;28;20439;-76
2023/03/22 09:18:41;;;;;;;9.90;3.83;;;11.80;99.90;;;;;;5110299;28;20404;-76
2023/03/22 09:21:08;;;;;;;8.97;4.30;;;11.90;99.90;;;;;;5091839;28;20396;-77
2023/03/22 09:23:36;;;;;;;10.15;4.63;;;11.90;99.90;;;;;;5109481;28;20773;-78
2023/03/22 09:26:07;;;;;;;8.27;3.83;;;11.90;99.90;;;;;;5092161;28;20945;-77
2023/03/22 09:28:34;;;;;;;12.02;4.60;;;11.90;99.90;;;;;;5096309;27;20922;-77
2023/03/22 09:31:06;;;;;;;11.93;3.80;;;11.90;99.90;;;;;;5084476;28;20857;-78
2023/03/22 09:33:33;;;;;;;10.40;4.30;;;11.90;99.90;;;;;;5112521;27;20400;-77
2023/03/22 09:35:59;;;;;;;11.25;4.22;;;11.90;99.90;;;;;;5110240;28;20408;-78
2023/03/22 09:38:26;;;;;;;8.67;3.57;;;11.80;99.90;;;;;;5112619;27;20404;-77
2023/03/22 09:40:59;;;;;;;12.98;4.35;;;11.80;99.90;;;;;;5091837;28;20401;-77
2023/03/22 09:43:49;;;;;;;10.15;3.75;;;11.80;99.90;;;;;;5106818;28;20400;-78
2023/03/22 09:46:20;;;;;;;12.27;3.90;;;11.80;99.90;;;;;;5094660;28;20440;-75
2023/03/22 09:48:47;;;;;;;13.20;3.78;;;11.80;99.90;;;;;;5113271;27;20766;-78
2023/03/22 09:51:32;;;;;;;9.85;3.40;;;11.80;99.90;;;;;;5109489;28;20475;-75
2023/03/22 09:53:58;;;;;;;12.32;3.65;;;11.90;99.90;;;;;;5109705;28;20465;-75
2023/03/22 09:56:27;;;;;;;8.80;3.47;;;11.90;99.90;;;;;;5090893;28;20401;-75
2023/03/22 09:59:14;;;;;;;6.47;2.60;;;12.00;99.90;;;;;;5109248;28;20435;-75
2023/03/22 10:01:49;;;;;;;12.13;4.05;;;11.90;99.90;;;;;;5109135;28;20405;-76
2023/03/22 10:04:40;;;;;;;7.95;3.10;;;12.00;99.90;;;;;;5100401;27;20404;-76
2023/03/22 10:07:28;;;;;;;9.53;3.47;;;12.00;99.90;;;;;;5110259;27;20420;-76
2023/03/22 10:10:17;;;;;;;9.52;2.90;;;12.00;99.90;;;;;;5091427;28;20404;-76
2023/03/22 10:13:06;;;;;;;8.35;3.13;;;11.90;99.90;;;;;;5107316;27;20449;-75
2023/03/22 10:15:39;;;;;;;9.73;3.37;;;11.90;99.90;;;;;;5092462;27;20458;-76
2023/03/22 10:18:16;;;;;;;9.13;2.95;;;11.90;99.90;;;;;;5091800;28;20977;-76
2023/03/22 10:21:20;;;;;;;9.10;3.00;;;11.80;99.90;;;;;;5087407;28;20451;-75
2023/03/22 10:23:55;;;;;;;10.57;3.53;;;11.70;99.90;;;;;;5039207;27;20460;-76
2023/03/22 10:26:28;;;;;;;8.48;3.42;;;11.70;99.90;;;;;;5108499;28;20409;-76
2023/03/22 10:29:11;;;;;;;10.43;3.30;;;11.50;99.90;;;;;;5089926;28;20434;-76
2023/03/22 10:31:40;;;;;;;8.07;2.97;;;11.40;99.90;;;;;;5098120;27;20498;-76
2023/03/22 10:34:30;;;;;;;9.40;3.47;;;11.30;99.90;;;;;;5091216;28;20488;-76
2023/03/22 10:37:00;;;;;;;10.75;3.60;;;11.20;99.90;;;;;;5094404;28;20472;-77
2023/03/22 10:39:37;;;;;;;10.25;3.20;;;11.20;99.90;;;;;;5111952;27;20429;-76
2023/03/22 10:42:11;;;;;;;9.85;3.70;;;11.10;99.90;;;;;;5112607;27;20412;-77
2023/03/22 10:44:53;;;;;;;10.35;3.60;;;11.00;99.90;;;;;;5103409;27;20494;-76
2023/03/22 10:47:44;;;;;;;11.30;3.38;;;10.90;99.90;;;;;;5102134;28;20396;-76
2023/03/22 10:50:18;;;;;;;8.55;3.30;;;10.90;99.90;;;;;;5107324;28;20433;-76
2023/03/22 10:52:55;;;;;;;9.48;3.78;;;10.90;99.90;;;;;;5096518;27;20926;-77
2023/03/22 10:55:23;;;;;;;10.25;3.80;;;10.90;99.90;;;;;;5112115;27;20483;-75
2023/03/22 10:58:13;;;;;;;8.88;3.40;;;10.90;99.90;;;;;;5092675;27;20414;-76
2023/03/22 11:00:55;;;;;;;6.67;3.13;;;10.80;99.90;;;;;;5110264;27;20880;-76
2023/03/22 11:03:39;;;;;;;10.27;3.60;;;10.80;99.90;;;;;;5100292;28;20400;-76
2023/03/22 11:06:14;;;;;;;11.45;4.13;;;10.80;99.90;;;;;;5090692;28;20942;-78
2023/03/22 11:09:09;;;;;;;11.50;4.63;;;10.80;99.90;;;;;;5108237;28;21521;-76
2023/03/22 11:11:44;;;;;;;11.40;4.28;;;10.80;99.90;;;;;;5095736;28;20397;-76
2023/03/22 11:14:26;;;;;;;9.03;4.30;;;10.80;99.90;;;;;;5086447;28;20404;-76
2023/03/22 11:16:56;;;;;;;12.57;4.40;;;10.70;99.90;;;;;;5090118;28;20408;-76
2023/03/22 11:19:30;;;;;;;10.30;4.90;;;10.80;99.90;;;;;;5108239;28;20887;-76
2023/03/22 11:21:58;;;;;;;9.73;4.50;;;10.70;99.90;;;;;;5089888;28;21330;-76
2023/03/22 11:24:26;;;;;;;8.48;4.90;;;10.70;99.90;;;;;;5108317;28;20404;-78
2023/03/22 11:27:27;;;;;;;8.25;4.20;;;10.70;99.90;;;;;;5095311;28;20762;-76
2023/03/22 11:30:18;;;;;;;9.95;4.50;;;10.70;99.90;;;;;;5089506;28;20417;-76
2023/03/22 11:32:44;;;;;;;9.53;3.80;;;10.70;99.90;;;;;;5081698;28;20409;-75
2023/03/22 11:35:14;;;;;;;11.17;3.90;;;10.70;99.90;;;;;;5107938;28;20423;-76
2023/03/22 11:37:46;;;;;;;10.02;3.63;;;10.70;99.90;;;;;;5107798;28;20824;-76
2023/03/22 11:40:16;;;;;;;7.90;3.70;;;10.80;99.90;;;;;;5086258;28;20473;-76
2023/03/22 11:42:41;;;;;;;9.10;3.63;;;10.80;99.90;;;;;;5090031;28;21323;-76
2023/03/22 11:45:13;;;;;;;9.82;3.88;;;10.80;99.90;;;;;;5090036;28;20404;-76
2023/03/22 11:47:39;;;;;;;11.02;4.10;;;10.80;99.90;;;;;;5090862;28;20404;-76
2023/03/22 11:50:08;;;;;;;10.00;3.87;;;10.80;99.90;;;;;;5090133;28;20415;-76
2023/03/22 11:52:35;;;;;;;9.38;3.85;;;10.80;99.90;;;;;;5109543;28;20403;-76
2023/03/22 11:55:02;;;;;;;5.85;2.55;;;10.80;99.90;;;;;;5107584;28;20404;-76
2023/03/22 11:57:32;;;;;;;6.20;2.70;;;10.80;99.90;;;;;;5108747;28;20797;-76
2023/03/22 12:00:10;;;;;;;5.20;2.90;;;10.80;99.90;;;;;;5112733;28;20424;-76
2023/03/22 12:02:50;;;;;;;9.77;3.10;;;10.80;99.90;;;;;;5107657;28;20409;-76
2023/03/22 12:05:30;;;;;;;7.47;3.17;;;10.90;99.90;;;;;;5101871;28;20405;-76
2023/03/22 12:08:44;;;;;;;8.88;3.00;;;10.90;99.90;;;;;;5107422;28;20405;-76
2023/03/22 12:11:28;;;;;;;7.80;3.30;;;10.90;99.90;;;;;;5046406;28;20404;-77
2023/03/22 12:13:59;;;;;;;6.00;2.67;;;10.90;99.90;;;;;;5092864;28;20408;-76
2023/03/22 12:16:32;;;;;;;7.32;2.95;;;10.90;99.90;;;;;;5101092;28;20404;-76
2023/03/22 12:19:21;;;;;;;7.40;3.20;;;10.90;99.90;;;;;;5092412;28;20431;-76
2023/03/22 12:21:48;;;;;;;8.60;3.25;;;10.90;99.90;;;;;;5111286;27;20416;-76
2023/03/22 12:24:26;;;;;;;8.82;3.08;;;10.80;99.90;;;;;;5092996;28;21206;-76
2023/03/22 12:26:56;;;;;;;7.45;3.10;;;10.80;99.90;;;;;;5082975;28;20411;-76
2023/03/22 12:29:23;;;;;;;6.93;2.90;;;10.80;99.90;;;;;;5110835;28;20408;-76
2023/03/22 12:32:10;;;;;;;6.10;2.67;;;10.80;99.90;;;;;;5110747;27;20479;-76
2023/03/22 12:34:42;;;;;;;8.32;3.00;;;10.80;99.90;;;;;;5110824;27;20928;-76
2023/03/22 12:37:15;;;;;;;7.55;2.90;;;10.80;99.90;;;;;;5092560;28;20408;-77
2023/03/22 12:39:59;;;;;;;5.65;2.65;;;10.80;99.90;;;;;;5093273;28;20459;-76
2023/03/22 12:42:58;;;;;;;7.30;2.70;;;10.80;99.90;;;;;;5103733;28;20449;-77
2023/03/22 12:45:27;;;;;;;6.20;2.72;;;10.80;99.90;;;;;;5114119;27;20396;-76
2023/03/22 12:48:04;;;;;;;7.22;3.00;;;10.90;99.90;;;;;;5114557;27;20780;-77
2023/03/22 12:50:39;;;;;;;9.77;3.03;;;10.90;99.90;;;;;;5093114;28;20441;-77
2023/03/22 12:53:05;;;;;;;6.35;3.30;;;10.80;99.90;;;;;;5119022;27;20798;-77
2023/03/22 12:55:30;;;;;;;7.07;3.53;;;10.80;99.90;;;;;;5110854;28;20450;-77
2023/03/22 12:57:57;;;;;;;10.30;3.23;;;10.80;99.90;;;;;;5119593;27;20406;-77
2023/03/22 13:00:37;;;;;;;8.70;3.17;;;10.70;99.90;;;;;;5109627;28;20428;-77